Flight Track Log - Related Links

Times and Time Zones

All times are in EDT time to prevent confusion due to time zone crossing. See the AAL1129 flight status page for this flight to view local times or setup timezone preferences in your user account.

Time Position Orientation Groundspeed Altitude Reporting Facility
EDT Latitude Longitude Course Direction KTS MPH feet Rate Location/Type
Thu 07:46:28 PM 39.7333 -86.2833 207° Southwest 174 200 1,300  Level Indianapolis TRACON
Thu 07:47:46 PM 39.7667 -86.2167 57° Northeast 236 272 3,900 2,217 Climbing Indianapolis TRACON
Thu 07:48:46 PM 39.7167 -86.1667 142° Southeast 280 322 6,400 2,583 Climbing Indianapolis TRACON
Thu 07:50:00 PM 39.3055 -86.5020 207° Southwest  Level FlightAware Approximate
Thu 07:50:10 PM 39.6008 -86.1686 181° South 281 323 10,100  Level Indianapolis Center
Thu 07:51:00 PM 39.2063 -86.5680 207° Southwest  Level FlightAware Approximate
Thu 07:51:12 PM 39.5294 -86.2358 216° Southwest 311 358 11,600  Level Indianapolis Center
Thu 07:52:14 PM 39.4481 -86.3153 217° Southwest 357 411 13,900 2,274 Climbing Indianapolis Center
Thu 07:53:16 PM 39.3639 -86.3989 218° Southwest 375 432 16,300 2,146 Climbing Indianapolis Center
Thu 07:54:17 PM 39.2764 -86.4858 218° Southwest 393 452 18,300 1,805 Climbing Indianapolis Center
Thu 07:55:19 PM 39.1844 -86.5753 217° Southwest 413 475 20,000 1,935 Climbing Indianapolis Center
Thu 07:56:21 PM 39.0769 -86.6558 210° Southwest 428 493 22,300 2,177 Climbing Indianapolis Center
Thu 07:57:23 PM 38.9689 -86.7181 204° Southwest 426 490 24,500 1,790 Climbing Indianapolis Center
Thu 07:58:25 PM 38.8419 -86.7936 205° Southwest 419 482 26,000 726 Climbing Indianapolis Center
Thu 07:59:27 PM 38.7294 -86.8608 205° Southwest 442 509 26,000  Level Indianapolis Center
Thu 08:00:28 PM 38.6150 -86.9278 205° Southwest 450 518 26,000  Level Indianapolis Center
Thu 08:01:30 PM 38.5044 -87.0036 208° Southwest 451 519 26,000  Level Indianapolis Center
Thu 08:02:32 PM 38.4197 -87.1156 226° Southwest 445 512 26,000  Level Indianapolis Center
Thu 08:03:34 PM 38.3192 -87.2481 226° Southwest 446 513 26,000  Level Indianapolis Center
Thu 08:04:35 PM 38.2350 -87.3603 226° Southwest 443 510 26,000  Level Indianapolis Center
Thu 08:05:37 PM 38.1503 -87.4708 226° Southwest 439 505 26,000  Level Indianapolis Center
Thu 08:06:39 PM 38.0656 -87.5819 226° Southwest 438 504 26,000  Level Indianapolis Center
Thu 08:07:40 PM 37.9819 -87.6931 226° Southwest 435 501 26,000  Level Indianapolis Center
Thu 08:08:42 PM 37.8986 -87.8036 226° Southwest 434 499 26,000  Level Indianapolis Center
Thu 08:09:44 PM 37.8206 -87.9194 230° Southwest 432 497 26,000  Level Indianapolis Center
Thu 08:10:45 PM 37.7353 -88.0419 229° Southwest 429 494 26,000  Level Indianapolis Center
Thu 08:11:47 PM 37.6581 -88.1533 229° Southwest 420 483 26,000  Level Indianapolis Center
Thu 08:12:49 PM 37.5703 -88.2794 229° Southwest 425 489 26,000  Level Indianapolis Center
Thu 08:13:50 PM 37.4917 -88.3933 229° Southwest 429 494 26,000  Level Indianapolis Center
Thu 08:14:52 PM 37.4069 -88.5117 228° Southwest 427 491 26,000  Level Indianapolis Center
Thu 08:15:54 PM 37.3322 -88.6186 229° Southwest 432 497 26,000  Level Indianapolis Center
Thu 08:16:55 PM 37.2522 -88.7311 228° Southwest 431 496 26,000  Level Indianapolis Center
Thu 08:17:57 PM 37.1664 -88.8517 228° Southwest 429 494 26,000  Level Indianapolis Center
Thu 08:18:59 PM 37.0881 -88.9625 228° Southwest 423 487 26,000  Level Indianapolis Center
Thu 08:20:01 PM 37.0083 -89.0742 228° Southwest 425 489 26,000  Level Indianapolis Center
Thu 08:21:02 PM 36.9286 -89.1847 228° Southwest 425 489 26,000  Level Indianapolis Center
Thu 08:22:08 PM 36.8419 -89.3097 229° Southwest 434 499 26,000  Level Memphis Center
Thu 08:23:08 PM 36.7658 -89.4219 230° Southwest 434 499 26,000  Level Memphis Center
Thu 08:24:08 PM 36.6833 -89.5317 227° Southwest 434 499 26,000  Level Memphis Center
Thu 08:25:08 PM 36.6025 -89.6436 228° Southwest 434 499 26,000  Level Memphis Center
Thu 08:26:08 PM 36.5219 -89.7528 227° Southwest 439 505 26,000  Level Memphis Center
Thu 08:27:08 PM 36.4411 -89.8617 227° Southwest 439 505 26,000  Level Memphis Center
Thu 08:28:08 PM 36.3603 -89.9706 227° Southwest 434 499 26,000  Level Memphis Center
Thu 08:29:08 PM 36.2689 -90.0944 228° Southwest 440 506 26,000  Level Memphis Center
Thu 08:30:08 PM 36.1856 -90.2053 227° Southwest 440 506 26,000  Level Memphis Center
Thu 08:31:08 PM 36.1044 -90.3158 228° Southwest 440 506 26,000  Level Memphis Center
Thu 08:32:08 PM 36.0231 -90.4236 227° Southwest 440 506 26,000  Level Memphis Center
Thu 08:33:08 PM 35.9522 -90.5186 227° Southwest 435 501 26,000  Level Memphis Center
Thu 08:34:08 PM 35.8686 -90.6286 227° Southwest 430 495 26,000  Level Memphis Center
Thu 08:35:08 PM 35.7869 -90.7333 226° Southwest 430 495 26,000  Level Memphis Center
Thu 08:36:08 PM 35.7072 -90.8428 228° Southwest 430 495 26,000  Level Memphis Center
Thu 08:37:08 PM 35.6275 -90.9547 229° Southwest 430 495 26,000  Level Memphis Center
Thu 08:38:08 PM 35.5456 -91.0614 227° Southwest 442 509 26,000  Level Memphis Center
Thu 08:39:08 PM 35.4636 -91.1703 227° Southwest 442 509 26,000  Level Memphis Center
Thu 08:40:08 PM 35.3794 -91.2764 226° Southwest 436 502 26,000  Level Memphis Center
Thu 08:41:08 PM 35.2911 -91.3897 226° Southwest 436 502 26,000  Level Memphis Center
Thu 08:42:08 PM 35.2086 -91.4981 227° Southwest 436 502 26,000  Level Memphis Center
Thu 08:43:08 PM 35.1386 -91.6192 235° Southwest 436 502 26,000  Level Memphis Center
Thu 08:44:08 PM 35.0853 -91.7453 243° Southwest 431 496 26,000  Level Memphis Center
Thu 08:45:08 PM 35.0317 -91.8736 243° Southwest 431 496 26,000  Level Memphis Center
Thu 08:46:08 PM 34.9758 -92.0019 242° Southwest 426 490 26,000  Level Memphis Center
Thu 08:47:08 PM 34.9239 -92.1300 244° Southwest 426 490 26,000  Level Memphis Center
Thu 08:48:08 PM 34.8656 -92.2606 241° Southwest 431 496 26,000  Level Memphis Center
Thu 08:49:08 PM 34.8114 -92.3908 243° Southwest 431 496 26,000  Level Memphis Center
Thu 08:50:08 PM 34.7569 -92.5208 243° Southwest 431 496 26,000  Level Memphis Center
Thu 08:51:08 PM 34.7006 -92.6458 241° Southwest 426 490 26,000  Level Memphis Center
Thu 08:52:08 PM 34.6439 -92.7756 242° Southwest 426 490 26,000  Level Memphis Center
Thu 08:53:08 PM 34.5914 -92.9028 243° Southwest 426 490 26,000  Level Memphis Center
Thu 08:54:08 PM 34.5344 -93.0269 241° Southwest 431 496 26,000  Level Memphis Center
Thu 08:55:08 PM 34.4817 -93.1564 244° Southwest 425 489 26,000  Level Memphis Center
Thu 08:56:08 PM 34.4222 -93.2853 241° Southwest 425 489 26,000  Level Memphis Center
Thu 08:57:08 PM 34.3669 -93.4117 242° Southwest 425 489 26,000  Level Memphis Center
Thu 08:58:26 PM 34.3086 -93.5694 246° West 427 491 26,000  Level Fort Worth Center
Thu 08:59:26 PM 34.2731 -93.7042 252° West 427 491 26,000  Level Fort Worth Center
Thu 09:00:26 PM 34.2331 -93.8414 251° West 427 491 26,000  Level Fort Worth Center
Thu 09:01:26 PM 34.1953 -93.9761 251° West 433 498 26,000  Level Fort Worth Center
Thu 09:02:26 PM 34.1572 -94.1131 251° West 433 498 26,000  Level Fort Worth Center
Thu 09:03:26 PM 34.1169 -94.2500 250° West 433 498 26,000  Level Fort Worth Center
Thu 09:04:26 PM 34.0722 -94.3847 248° West 433 498 26,000  Level Fort Worth Center
Thu 09:05:26 PM 34.0275 -94.5214 248° West 433 498 26,000  Level Fort Worth Center
Thu 09:06:26 PM 33.9825 -94.6533 248° West 433 498 26,000  Level Fort Worth Center
Thu 09:07:26 PM 33.9414 -94.7872 250° West 433 498 26,000  Level Fort Worth Center
Thu 09:08:26 PM 33.8961 -94.9211 248° West 438 504 26,000  Level Fort Worth Center
Thu 09:09:26 PM 33.8528 -95.0500 248° West 438 504 26,000  Level Fort Worth Center
Thu 09:10:26 PM 33.8072 -95.1861 248° West 438 504 26,000  Level Fort Worth Center
Thu 09:11:26 PM 33.7614 -95.3197 248° West 438 504 26,000  Level Fort Worth Center
Thu 09:12:26 PM 33.7197 -95.4506 249° West 438 504 26,000 -400 Level Fort Worth Center
Thu 09:13:26 PM 33.6700 -95.6014 248° West 438 504 25,200  Descending Fort Worth Center
Thu 09:14:26 PM 33.6258 -95.7372 249° West 443 510 26,000 -2,700 Climbing Fort Worth Center
Thu 09:15:26 PM 33.5794 -95.8725 248° West 443 510 19,800 -4,250 Descending Fort Worth Center
Thu 09:16:26 PM 33.5392 -95.9906 248° West 434 499 17,500 -2,500 Descending Fort Worth Center
Thu 09:17:26 PM 33.4947 -96.1256 248° West 412 474 14,800 -2,450 Descending Fort Worth Center
Thu 09:18:26 PM 33.4583 -96.2308 248° West 395 455 12,600 -1,900 Descending Fort Worth Center
Thu 09:19:26 PM 33.4156 -96.3558 248° West 385 443 11,000 -1,000 Descending Fort Worth Center
Thu 09:20:26 PM 33.3744 -96.4383 239° Southwest 352 405 10,600 -897 Descending Fort Worth Center
Thu 09:21:13 PM 33.3500 -96.5167 250° West 295 339 9,400 -1,458 Descending Dallas / Fort Worth TRACON
Thu 09:22:13 PM 33.3167 -96.6000 244° Southwest 286 329 8,000 -1,400 Descending Dallas / Fort Worth TRACON
Thu 09:23:13 PM 33.2833 -96.6833 244° Southwest 276 318 6,600 -1,429 Descending Dallas / Fort Worth TRACON
Thu 09:24:19 PM 33.2333 -96.7667 234° Southwest 267 307 5,000 -992 Descending Dallas / Fort Worth TRACON
Thu 09:25:20 PM 33.2000 -96.8500 244° Southwest 272 313 4,500 -1,008 Descending Dallas / Fort Worth TRACON
Thu 09:26:18 PM 33.1667 -96.9333 244° Southwest 270 311 3,000 -763 Descending Dallas / Fort Worth TRACON
Thu 09:27:18 PM 33.1333 -97.0000 239° Southwest 249 287 3,000 -55 Level Dallas / Fort Worth TRACON
Thu 09:28:07 PM 33.0833 -97.0167 196° South 234 269 2,900 -122 Descending Dallas / Fort Worth TRACON

Login

Don't have an account? Register now (free) for customized features, flight alerts, and more!